Sacramento, California
Traffic Map
Current Weather Conditions
Sacramento, California
Clear
Clear
16°
Feels Like: 16°
Wind Chill: 16° Ceiling: Unl
Heat Index: 16° Visibility: 10mi
Dew Point: 11° Wind: 0mph
Humidity: 72% Direction: ° ()
Pressure: 29.8in Gusts: 0mph
Raw Report DataKSAC 180553Z AUTO 00000KT 10SM CLR 16/11 A2980 RMK AO2 SLP089 T01560106 10250 20156 50013
Traffic Incident Summary
Active as of:
Severity:
Category:
InformationThere was an issue retrieving the traffic information for this location. Please try a different location or try again shortly.
Advertisements
At Last! Intellicast now available for iPhone and Android